Adairo, OH

2:53 AM EDT on November 01, 2014 (GMT -0400)
Mansfield Lahm Regional | Change Station
CLOSE
Current Station
Airport
Location: Mansfield,
Elevation: 1296 ft
Nearby Weather Stations

Elev 1296 ft 40.82 °N, 82.52 °W | Updated 59 minutes ago

Rain
Rain
40 °F
Feels Like 34 °F
N
9
Wind Variable Wind from NNW

Today
High -- | Low -- °F
--% Chance of Precip.
Yesterday
High -- | Low -- °F
Precip. -- in
8:00 AM 6:25 PM
Waxing Gibbous, 63% visible
Pressure 29.94 in
Visibility 9.0 miles
Clouds Mostly Cloudy 700 ft
Overcast 1700 ft
Windchill 34 °F
Dew Point 39 °F
Humidity 97%
Rainfall 0.05 in
Snow Depth Not available.
UV 0 out of 12
Pollen .10 out of 12
Air Quality Not available.
Flu Activity Not available.
SPECI KMFD 010554Z AUTO 34008KT 9SM -RA BKN007 OVC017 04/04 A2994 RMK AO2 P0000 T00440039

More Conditions Fewer Conditions

Pressure 29.94 in
Visibility 9.0 miles
Clouds Mostly Cloudy 700 ft
Overcast 1700 ft
Windchill 34 °F
Dew Point 39 °F
Humidity 97%
Rainfall 0.05 in
Snow Depth Not available.
UV 0 out of 12
Pollen .10 out of 12
Air Quality Not available.
Flu Activity Not available.
SPECI KMFD 010554Z AUTO 34008KT 9SM -RA BKN007 OVC017 04/04 A2994 RMK AO2 P0000 T00440039

More Conditions Fewer Conditions

10-Day Weather Forecast

Almanac

Astronomy

Nov. 01, 2014 Rise Set
Actual Time
Civil Twilight
Nautical Twilight
Astronomical Twilight
Moon
Length of Visible Light
Length of Day
Tomorrow will be .
, % of the Moon is Illuminated

Today's Extremes

State Highs State Lows

Community

WunderPhotos

Upload Photos

1,766,865 photos uploaded!

WunderBlogs® & News

Nearby

Air Quality

  Air Quality AQ Index Pollutant
Not available.

Snow Depth

Station Depth Elevation

Earthquake Activity

City Distance Mag. Time & Date
Minimum magnitude displayed is 2.5.

Coastal Water Temperatures

Place Temperature

Nearby Weather Stations